createdAt,value
2019-01-19T00:02:27.841Z,98.18
2019-01-19T00:05:02.352Z,98.79
2019-01-19T00:07:46.047Z,99.18
2019-01-19T00:10:35.837Z,99.49
2019-01-19T00:13:16.069Z,99.93
2019-01-19T00:15:47.767Z,100.00
2019-01-19T00:18:42.113Z,100.00
2019-01-19T00:21:25.753Z,100.00
2019-01-19T00:23:57.333Z,100.00
2019-01-19T00:26:50.188Z,99.87
2019-01-19T00:29:41.690Z,99.65
2019-01-19T00:32:42.071Z,99.66
2019-01-19T00:35:25.390Z,99.75
2019-01-19T00:37:56.917Z,99.80
2019-01-19T00:40:48.123Z,100.00
2019-01-19T00:43:17.144Z,100.00
2019-01-19T00:45:57.863Z,100.00
2019-01-19T00:48:32.428Z,100.00
2019-01-19T00:51:20.931Z,100.00
2019-01-19T00:54:13.971Z,100.00
2019-01-19T00:57:09.833Z,100.00
2019-01-19T00:59:41.087Z,100.00
2019-01-19T01:02:19.171Z,100.00
2019-01-19T01:05:06.128Z,100.00
2019-01-19T01:07:43.363Z,99.55
2019-01-19T01:10:14.967Z,98.73
2019-01-19T01:12:52.143Z,98.01
2019-01-19T01:15:32.476Z,97.40
2019-01-19T01:18:04.101Z,96.89
2019-01-19T01:20:44.273Z,96.45
2019-01-19T01:23:43.179Z,96.11
2019-01-19T01:26:26.612Z,95.72
2019-01-19T01:29:00.973Z,95.27
2019-01-19T01:31:41.398Z,94.94
2019-01-19T01:34:18.803Z,94.69
2019-01-19T01:37:03.714Z,94.59
2019-01-19T01:39:38.105Z,94.50
2019-01-19T01:42:12.458Z,94.39
2019-01-19T01:44:53.205Z,94.31
2019-01-19T01:47:33.663Z,94.29
2019-01-19T01:50:08.098Z,94.54
2019-01-19T01:52:57.483Z,95.15
2019-01-19T01:55:29.065Z,96.02
2019-01-19T01:58:00.587Z,96.96
2019-01-19T02:00:39.294Z,97.57
2019-01-19T02:03:19.950Z,97.89
2019-01-19T02:06:06.557Z,97.97
2019-01-19T02:09:09.057Z,97.94
2019-01-19T02:11:57.427Z,97.91
2019-01-19T02:14:28.952Z,97.88
2019-01-19T02:17:03.560Z,97.82
2019-01-19T02:19:47.216Z,97.72
2019-01-19T02:22:27.681Z,97.54
2019-01-19T02:25:05.137Z,97.46
2019-01-19T02:28:02.327Z,97.40
2019-01-19T02:30:53.094Z,97.18
2019-01-19T02:33:50.386Z,96.97
2019-01-19T02:36:30.785Z,96.75
2019-01-19T02:39:12.231Z,96.44
2019-01-19T02:42:00.200Z,96.09
2019-01-19T02:44:49.466Z,95.90
2019-01-19T02:47:27.176Z,95.77
2019-01-19T02:50:22.341Z,95.71
2019-01-19T02:53:20.912Z,95.61
2019-01-19T02:56:01.458Z,95.45
2019-01-19T02:58:58.354Z,95.05
2019-01-19T03:01:35.038Z,94.80
2019-01-19T03:04:24.708Z,94.67
2019-01-19T03:07:14.501Z,94.74
2019-01-19T03:10:02.358Z,94.72
2019-01-19T03:12:54.882Z,94.76
2019-01-19T03:15:35.321Z,94.66
2019-01-19T03:18:18.709Z,94.46
2019-01-19T03:21:02.826Z,94.34
2019-01-19T03:23:40.526Z,94.22
2019-01-19T03:26:21.190Z,94.20
2019-01-19T03:29:15.598Z,94.29
2019-01-19T03:31:54.040Z,94.39
2019-01-19T03:34:42.169Z,94.56
2019-01-19T03:37:29.169Z,94.70
2019-01-19T03:40:06.893Z,94.86
2019-01-19T03:42:47.180Z,95.06
2019-01-19T03:45:35.360Z,95.25
2019-01-19T03:48:19.035Z,95.52
2019-01-19T03:51:07.003Z,95.73
2019-01-19T03:53:42.429Z,95.98
2019-01-19T03:56:17.213Z,96.08
2019-01-19T03:59:07.162Z,96.17
2019-01-19T04:01:47.441Z,96.27
2019-01-19T04:04:32.751Z,96.41
2019-01-19T04:07:07.059Z,96.58
2019-01-19T04:09:44.452Z,96.81
2019-01-19T04:12:27.958Z,97.07
2019-01-19T04:15:14.885Z,97.29
2019-01-19T04:17:52.529Z,97.47
2019-01-19T04:20:46.882Z,97.69
2019-01-19T04:23:15.454Z,97.83
2019-01-19T04:25:46.990Z,97.83
2019-01-19T04:28:15.907Z,97.82
2019-01-19T04:30:44.439Z,97.70
2019-01-19T04:33:12.997Z,97.52
2019-01-19T04:35:41.459Z,97.41
2019-01-19T04:38:10.061Z,97.36
2019-01-19T04:40:38.533Z,97.29
2019-01-19T04:43:06.999Z,97.31
2019-01-19T04:45:35.531Z,97.29
2019-01-19T04:48:04.459Z,97.22
2019-01-19T04:50:32.968Z,97.17
2019-01-19T04:53:01.571Z,97.08
2019-01-19T04:55:31.085Z,96.97
2019-01-19T04:57:59.554Z,96.78
2019-01-19T05:00:28.220Z,96.63
2019-01-19T05:02:56.762Z,96.47
2019-01-19T05:05:28.103Z,96.33
2019-01-19T05:07:56.709Z,96.19
2019-01-19T05:10:25.238Z,96.13
2019-01-19T05:12:53.804Z,96.08
2019-01-19T05:15:22.395Z,96.16
2019-01-19T05:17:51.010Z,96.25
2019-01-19T05:20:19.569Z,96.34
2019-01-19T05:22:49.272Z,96.43
2019-01-19T05:25:17.779Z,96.55
2019-01-19T05:27:46.242Z,96.64
2019-01-19T05:30:17.232Z,96.72
2019-01-19T05:32:47.901Z,96.83
2019-01-19T05:35:16.844Z,96.92
2019-01-19T05:37:46.243Z,97.08
2019-01-19T05:40:14.885Z,97.34
2019-01-19T05:42:43.521Z,97.99
2019-01-19T05:45:14.205Z,98.09
2019-01-19T05:47:43.771Z,98.03
2019-01-19T05:50:17.503Z,97.73
2019-01-19T05:52:46.071Z,97.84
2019-01-19T05:55:14.592Z,98.10
2019-01-19T05:57:43.129Z,98.42
2019-01-19T06:00:20.898Z,98.76
2019-01-19T06:02:49.479Z,98.94
2019-01-19T06:05:18.293Z,98.84
2019-01-19T06:07:48.840Z,98.36
2019-01-19T06:10:18.002Z,97.81
2019-01-19T06:12:46.573Z,97.37
2019-01-19T06:15:16.768Z,97.21
2019-01-19T06:17:45.381Z,97.18
2019-01-19T06:20:16.013Z,97.34
2019-01-19T06:22:44.811Z,97.43
2019-01-19T06:25:16.810Z,97.54
2019-01-19T06:27:45.525Z,97.69
2019-01-19T06:30:19.572Z,97.88
2019-01-19T06:32:48.214Z,98.03
2019-01-19T06:35:16.953Z,98.37
2019-01-19T06:37:45.630Z,98.27
2019-01-19T06:40:16.619Z,98.27
2019-01-19T06:42:45.960Z,97.83
2019-01-19T06:45:22.796Z,97.79
2019-01-19T06:47:51.383Z,97.88
2019-01-19T06:50:20.002Z,97.84
2019-01-19T06:52:48.606Z,97.78
2019-01-19T06:55:23.214Z,97.80
2019-01-19T06:57:51.862Z,98.03
2019-01-19T07:00:20.496Z,98.23
2019-01-19T07:02:49.950Z,98.37
2019-01-19T07:05:18.575Z,98.41
2019-01-19T07:07:47.201Z,98.63
2019-01-19T07:10:20.112Z,98.64
2019-01-19T07:12:49.584Z,98.56
2019-01-19T07:15:18.264Z,98.31
2019-01-19T07:17:46.825Z,98.16
2019-01-19T07:20:24.271Z,98.06
2019-01-19T07:22:52.904Z,98.04
2019-01-19T07:25:21.515Z,98.04
2019-01-19T07:27:50.045Z,98.02
2019-01-19T07:30:18.861Z,98.00
2019-01-19T07:32:47.876Z,97.93
2019-01-19T07:35:17.296Z,97.75
2019-01-19T07:37:45.769Z,97.64
2019-01-19T07:40:17.127Z,97.46
2019-01-19T07:42:46.568Z,97.18
2019-01-19T07:45:16.234Z,96.62
2019-01-19T07:47:45.354Z,96.46
2019-01-19T07:50:18.578Z,95.90
2019-01-19T07:52:47.116Z,95.40
2019-01-19T07:55:17.451Z,95.33
2019-01-19T07:57:47.160Z,94.52
2019-01-19T08:00:18.459Z,93.63
2019-01-19T08:02:47.010Z,93.22
2019-01-19T08:05:16.674Z,92.96
2019-01-19T08:07:45.528Z,92.92
2019-01-19T08:10:20.516Z,92.05
2019-01-19T08:12:50.153Z,90.86
2019-01-19T08:15:26.838Z,89.90
2019-01-19T08:17:55.639Z,89.78
2019-01-19T08:20:24.463Z,89.22
2019-01-19T08:22:53.022Z,89.02
2019-01-19T08:25:21.621Z,88.93
2019-01-19T08:27:50.109Z,88.39
2019-01-19T08:30:20.912Z,88.41
2019-01-19T08:32:50.278Z,88.78
2019-01-19T08:35:19.100Z,88.46
2019-01-19T08:37:48.507Z,88.28
2019-01-19T08:40:22.879Z,88.33
2019-01-19T08:42:59.054Z,88.13
2019-01-19T08:45:27.542Z,88.13
2019-01-19T08:47:56.261Z,87.83
2019-01-19T08:50:24.804Z,87.70
2019-01-19T08:52:53.352Z,87.30
2019-01-19T08:55:21.944Z,87.30
2019-01-19T08:57:50.495Z,87.25
2019-01-19T09:00:20.412Z,86.60
2019-01-19T09:02:49.124Z,86.60
2019-01-19T09:05:18.471Z,86.09
2019-01-19T09:07:47.021Z,85.43
2019-01-19T09:10:17.147Z,85.40
2019-01-19T09:12:48.004Z,85.49
2019-01-19T09:15:19.260Z,85.28
2019-01-19T09:17:47.797Z,84.73
2019-01-19T09:20:17.947Z,84.38
2019-01-19T09:22:48.713Z,84.33
2019-01-19T09:25:17.714Z,83.79
2019-01-19T09:27:47.372Z,84.07
2019-01-19T09:30:18.778Z,84.25
2019-01-19T09:32:47.953Z,83.75
2019-01-19T09:35:17.743Z,83.40
2019-01-19T09:37:46.964Z,83.56
2019-01-19T09:40:18.853Z,83.18
2019-01-19T09:42:47.481Z,83.07
2019-01-19T09:45:17.862Z,82.95
2019-01-19T09:47:46.634Z,82.95
2019-01-19T09:50:17.026Z,82.30
2019-01-19T09:52:46.710Z,81.82
2019-01-19T09:55:15.440Z,81.54
2019-01-19T09:57:43.928Z,81.93
2019-01-19T10:00:15.282Z,82.21
2019-01-19T10:02:43.923Z,82.55
2019-01-19T10:05:15.589Z,82.55
2019-01-19T10:07:48.466Z,82.39
2019-01-19T10:10:15.006Z,81.10
2019-01-19T10:12:43.539Z,81.10
2019-01-19T10:15:14.741Z,80.68
2019-01-19T10:17:44.328Z,80.68
2019-01-19T10:20:29.775Z,80.29
2019-01-19T10:22:58.368Z,79.69
2019-01-19T10:25:27.007Z,80.04
2019-01-19T10:27:55.561Z,80.09
2019-01-19T10:30:33.735Z,79.59
2019-01-19T10:33:02.276Z,79.14
2019-01-19T10:35:30.810Z,79.05
2019-01-19T10:37:59.434Z,78.54
2019-01-19T10:40:27.902Z,77.91
2019-01-19T10:42:56.372Z,77.86
2019-01-19T10:45:45.693Z,78.29
2019-01-19T10:48:14.234Z,77.57
2019-01-19T10:50:42.708Z,77.33
2019-01-19T10:53:11.235Z,77.17
2019-01-19T10:55:39.801Z,77.13
2019-01-19T10:58:08.384Z,77.04
2019-01-19T11:00:36.982Z,75.58
2019-01-19T11:03:05.660Z,74.86
2019-01-19T11:05:34.262Z,74.81
2019-01-19T11:08:04.222Z,74.67
2019-01-19T11:10:36.198Z,75.05
2019-01-19T11:13:04.916Z,75.08
2019-01-19T11:15:33.569Z,74.23
2019-01-19T11:18:02.029Z,74.40
2019-01-19T11:20:32.385Z,73.96
2019-01-19T11:23:02.418Z,74.34
2019-01-19T11:25:31.221Z,74.90
2019-01-19T11:27:59.907Z,75.31
2019-01-19T11:30:33.183Z,75.53
2019-01-19T11:33:01.750Z,76.69
2019-01-19T11:35:30.974Z,76.31
2019-01-19T11:37:59.453Z,77.04
2019-01-19T11:40:33.708Z,76.65
2019-01-19T11:43:02.323Z,77.34
2019-01-19T11:45:30.986Z,76.53
2019-01-19T11:47:59.461Z,75.41
2019-01-19T11:50:28.099Z,75.78
2019-01-19T11:52:56.711Z,76.69
2019-01-19T11:55:25.245Z,77.25
2019-01-19T11:58:00.607Z,77.00
2019-01-19T12:00:34.551Z,77.11
2019-01-19T12:03:05.716Z,75.84
2019-01-19T12:05:34.257Z,76.63
2019-01-19T12:08:02.799Z,75.74
2019-01-19T12:10:32.035Z,75.58
2019-01-19T12:13:00.751Z,74.91
2019-01-19T12:15:29.619Z,74.36
2019-01-19T12:17:59.340Z,74.54
2019-01-19T12:20:30.487Z,75.35
2019-01-19T12:22:59.221Z,75.89
2019-01-19T12:25:27.763Z,75.95
2019-01-19T12:27:56.291Z,77.12
2019-01-19T12:30:30.523Z,75.65
2019-01-19T12:32:59.129Z,74.50
2019-01-19T12:35:28.156Z,75.10
2019-01-19T12:37:57.626Z,75.02
2019-01-19T12:40:28.360Z,73.76
2019-01-19T12:42:59.663Z,72.01
2019-01-19T12:45:33.821Z,70.81
2019-01-19T12:48:02.404Z,68.30
2019-01-19T12:50:31.040Z,66.61
2019-01-19T12:52:59.773Z,67.66
2019-01-19T12:55:28.239Z,68.48
2019-01-19T12:57:56.715Z,68.43
2019-01-19T13:00:29.014Z,69.54
2019-01-19T13:02:57.850Z,70.50
2019-01-19T13:05:35.535Z,70.74
2019-01-19T13:08:06.835Z,71.00
2019-01-19T13:10:50.557Z,71.30
2019-01-19T13:13:19.104Z,70.62
2019-01-19T13:15:50.681Z,67.83
2019-01-19T13:18:46.673Z,65.85
2019-01-19T13:21:42.618Z,66.57
2019-01-19T13:24:26.736Z,67.41
2019-01-19T13:27:14.721Z,69.28
2019-01-19T13:29:55.090Z,69.35
2019-01-19T13:32:50.942Z,71.43
2019-01-19T13:35:42.242Z,73.15
2019-01-19T13:38:28.692Z,72.12
2019-01-19T13:41:21.759Z,70.14
2019-01-19T13:44:02.527Z,70.82
2019-01-19T13:46:54.023Z,71.31
2019-01-19T13:49:48.442Z,70.18
2019-01-19T13:52:20.051Z,70.95
2019-01-19T13:55:09.797Z,71.21
2019-01-19T13:57:44.215Z,71.88
2019-01-19T14:00:38.690Z,72.87
2019-01-19T14:03:22.269Z,73.20
2019-01-19T14:06:22.604Z,74.31
2019-01-19T14:09:12.288Z,74.02
2019-01-19T14:12:00.325Z,74.01
2019-01-19T14:14:52.992Z,74.60
2019-01-19T14:17:40.975Z,72.46
2019-01-19T14:20:21.230Z,73.13
2019-01-19T14:23:15.181Z,73.77
2019-01-19T14:25:59.000Z,73.37
2019-01-19T14:28:39.933Z,73.77
2019-01-19T14:31:20.352Z,73.77
2019-01-19T14:33:57.680Z,73.83
2019-01-19T14:36:38.790Z,73.83
2019-01-19T14:39:13.315Z,73.80
2019-01-19T14:42:06.402Z,74.13
2019-01-19T14:44:37.918Z,74.28
2019-01-19T14:47:24.665Z,74.80
2019-01-19T14:50:29.736Z,75.11
2019-01-19T14:53:13.262Z,75.01
2019-01-19T14:56:06.825Z,75.61
2019-01-19T14:58:59.760Z,75.46
2019-01-19T15:01:57.062Z,76.06
2019-01-19T15:04:37.395Z,76.06
2019-01-19T15:07:08.909Z,76.80
2019-01-19T15:09:56.981Z,76.80
2019-01-19T15:12:28.509Z,77.21
2019-01-19T15:15:12.011Z,78.42
2019-01-19T15:17:55.814Z,78.42
2019-01-19T15:20:39.670Z,79.08
2019-01-19T15:23:11.196Z,79.84
2019-01-19T15:25:57.934Z,81.72
2019-01-19T15:28:39.292Z,81.72
2019-01-19T15:31:27.580Z,83.14
2019-01-19T15:34:23.114Z,84.41
2019-01-19T15:36:57.493Z,85.26
2019-01-19T15:39:44.271Z,86.47
2019-01-19T15:42:31.298Z,86.78
2019-01-19T15:45:19.355Z,87.59
2019-01-19T15:48:01.704Z,88.43
2019-01-19T15:50:39.138Z,88.80
2019-01-19T15:53:19.553Z,89.39
2019-01-19T15:56:09.299Z,90.23
2019-01-19T15:58:46.591Z,91.06
2019-01-19T16:01:33.196Z,91.60
2019-01-19T16:04:13.560Z,92.52
2019-01-19T16:06:54.122Z,93.53
2019-01-19T16:09:25.712Z,93.92
2019-01-19T16:12:00.251Z,94.32
2019-01-19T16:14:31.891Z,94.97
2019-01-19T16:17:09.308Z,95.78
2019-01-19T16:19:40.891Z,96.10
2019-01-19T16:22:33.362Z,96.44
2019-01-19T16:25:26.513Z,96.96
2019-01-19T16:27:58.039Z,97.32
2019-01-19T16:30:46.714Z,97.78
2019-01-19T16:33:33.245Z,97.49
2019-01-19T16:36:21.016Z,98.02
2019-01-19T16:38:58.398Z,98.41
2019-01-19T16:41:39.288Z,99.15
2019-01-19T16:44:16.908Z,99.45
2019-01-19T16:47:06.673Z,99.79
2019-01-19T16:49:43.953Z,99.95
2019-01-19T16:52:27.328Z,100.00
2019-01-19T16:55:11.042Z,100.00
2019-01-19T16:57:57.983Z,100.00
2019-01-19T17:00:49.506Z,100.00
2019-01-19T17:03:21.109Z,100.00
2019-01-19T17:06:01.666Z,100.00
2019-01-19T17:08:39.047Z,100.00
2019-01-19T17:11:16.698Z,100.00
2019-01-19T17:14:02.707Z,100.00
2019-01-19T17:16:49.475Z,100.00
2019-01-19T17:19:39.100Z,100.00
2019-01-19T17:22:19.701Z,100.00
2019-01-19T17:25:15.073Z,100.00
2019-01-19T17:27:55.376Z,100.00
2019-01-19T17:30:29.460Z,100.00
2019-01-19T17:33:17.673Z,100.00
2019-01-19T17:35:49.281Z,100.00
2019-01-19T17:38:35.699Z,100.00
2019-01-19T17:41:26.699Z,100.00
2019-01-19T17:44:04.217Z,100.00
2019-01-19T17:46:38.377Z,100.00
2019-01-19T17:49:24.824Z,100.00
2019-01-19T17:51:59.340Z,100.00
2019-01-19T17:54:30.883Z,100.00
2019-01-19T17:57:08.541Z,100.00
2019-01-19T18:00:01.574Z,100.00
2019-01-19T18:02:54.451Z,99.69
2019-01-19T18:05:47.167Z,99.21
2019-01-19T18:08:38.204Z,99.65
2019-01-19T18:11:15.699Z,100.00
2019-01-19T18:14:08.533Z,100.00
2019-01-19T18:16:45.845Z,100.00
2019-01-19T18:19:23.030Z,100.00
2019-01-19T18:22:06.493Z,100.00
2019-01-19T18:24:47.032Z,100.00
2019-01-19T18:27:36.993Z,100.00
2019-01-19T18:30:31.459Z,100.00
2019-01-19T18:33:22.856Z,100.00
2019-01-19T18:36:13.656Z,100.00
2019-01-19T18:39:08.502Z,100.00
2019-01-19T18:41:40.201Z,100.00
2019-01-19T18:44:46.689Z,100.00
2019-01-19T18:47:26.499Z,100.00
2019-01-19T18:50:23.492Z,100.00
2019-01-19T18:53:07.129Z,100.00
2019-01-19T18:55:44.686Z,100.00
2019-01-19T18:58:22.674Z,100.00
2019-01-19T19:01:06.226Z,100.00
2019-01-19T19:03:58.329Z,100.00
2019-01-19T19:06:35.848Z,100.00
2019-01-19T19:09:27.107Z,100.00
2019-01-19T19:12:15.405Z,100.00
2019-01-19T19:14:56.019Z,100.00
2019-01-19T19:17:30.676Z,100.00
2019-01-19T19:20:23.519Z,100.00
2019-01-19T19:23:17.865Z,100.00
2019-01-19T19:25:49.476Z,100.00
2019-01-19T19:28:29.880Z,100.00
2019-01-19T19:31:04.537Z,100.00
2019-01-19T19:33:42.170Z,100.00
2019-01-19T19:36:19.546Z,100.00
2019-01-19T19:39:00.549Z,100.00
2019-01-19T19:41:44.240Z,100.00
2019-01-19T19:44:18.621Z,100.00
2019-01-19T19:46:52.986Z,100.00
2019-01-19T19:49:33.515Z,100.00
2019-01-19T19:52:03.062Z,100.00
2019-01-19T19:54:32.898Z,100.00
2019-01-19T19:57:01.728Z,100.00
2019-01-19T19:59:30.292Z,100.00
2019-01-19T20:01:58.939Z,100.00
2019-01-19T20:04:27.968Z,100.00
2019-01-19T20:06:56.595Z,100.00
2019-01-19T20:09:25.236Z,100.00
2019-01-19T20:11:56.672Z,100.00
2019-01-19T20:14:25.210Z,100.00
2019-01-19T20:16:53.895Z,100.00
2019-01-19T20:19:22.448Z,100.00
2019-01-19T20:21:51.087Z,100.00
2019-01-19T20:24:19.839Z,100.00
2019-01-19T20:26:48.389Z,100.00
2019-01-19T20:29:17.004Z,100.00
2019-01-19T20:31:45.475Z,100.00
2019-01-19T20:34:13.969Z,100.00
2019-01-19T20:36:43.653Z,100.00
2019-01-19T20:39:12.480Z,100.00
2019-01-19T20:41:41.879Z,100.00
2019-01-19T20:44:10.542Z,100.00
2019-01-19T20:46:39.283Z,100.00
2019-01-19T20:49:07.848Z,100.00
2019-01-19T20:51:36.515Z,100.00
2019-01-19T20:54:05.149Z,100.00
2019-01-19T20:56:33.631Z,100.00
2019-01-19T20:59:03.235Z,100.00
2019-01-19T21:01:31.799Z,100.00
2019-01-19T21:04:00.289Z,100.00
2019-01-19T21:06:29.983Z,100.00
2019-01-19T21:08:58.553Z,100.00
2019-01-19T21:11:27.169Z,100.00
2019-01-19T21:13:55.780Z,100.00
2019-01-19T21:16:24.260Z,100.00
2019-01-19T21:18:52.760Z,100.00
2019-01-19T21:21:21.432Z,100.00
2019-01-19T21:23:49.926Z,100.00
2019-01-19T21:26:18.617Z,100.00
2019-01-19T21:28:48.150Z,100.00
2019-01-19T21:31:16.631Z,100.00
2019-01-19T21:33:45.112Z,100.00
2019-01-19T21:36:13.728Z,100.00
2019-01-19T21:38:42.220Z,100.00
2019-01-19T21:41:10.700Z,100.00
2019-01-19T21:43:43.232Z,100.00
2019-01-19T21:46:11.752Z,100.00
2019-01-19T21:48:40.310Z,100.00
2019-01-19T21:51:09.728Z,100.00
2019-01-19T21:53:38.226Z,100.00
2019-01-19T21:56:06.767Z,100.00
2019-01-19T21:58:35.430Z,100.00
2019-01-19T22:01:04.045Z,100.00
2019-01-19T22:03:32.640Z,100.00
2019-01-19T22:06:01.277Z,100.00
2019-01-19T22:08:29.770Z,100.00
2019-01-19T22:10:58.416Z,100.00
2019-01-19T22:13:26.956Z,100.00
2019-01-19T22:15:55.492Z,100.00
2019-01-19T22:18:23.974Z,100.00
2019-01-19T22:20:52.606Z,100.00
2019-01-19T22:23:23.134Z,100.00
2019-01-19T22:25:51.681Z,100.00
2019-01-19T22:28:20.283Z,100.00
2019-01-19T22:30:48.762Z,100.00
2019-01-19T22:33:17.637Z,100.00
2019-01-19T22:35:46.253Z,100.00
2019-01-19T22:38:14.747Z,100.00
2019-01-19T22:40:43.297Z,100.00
2019-01-19T22:43:12.115Z,100.00
2019-01-19T22:45:41.554Z,100.00
2019-01-19T22:48:10.208Z,100.00
2019-01-19T22:50:39.257Z,100.00
2019-01-19T22:53:07.737Z,100.00
2019-01-19T22:55:36.250Z,100.00
2019-01-19T22:58:04.938Z,100.00
2019-01-19T23:00:59.545Z,100.00
2019-01-19T23:03:29.642Z,100.00
2019-01-19T23:05:58.194Z,100.00
2019-01-19T23:08:26.750Z,100.00
2019-01-19T23:11:01.078Z,100.00
2019-01-19T23:13:25.546Z,100.00
2019-01-19T23:15:54.107Z,100.00
2019-01-19T23:18:22.676Z,100.00
2019-01-19T23:20:51.220Z,100.00
2019-01-19T23:23:20.719Z,100.00
2019-01-19T23:25:49.266Z,100.00
2019-01-19T23:28:17.835Z,100.00
2019-01-19T23:30:46.461Z,100.00
2019-01-19T23:33:15.079Z,100.00
2019-01-19T23:35:43.644Z,100.00
2019-01-19T23:38:12.149Z,100.00
2019-01-19T23:40:40.763Z,100.00
2019-01-19T23:43:09.303Z,100.00
2019-01-19T23:45:39.748Z,100.00
2019-01-19T23:48:09.325Z,100.00
2019-01-19T23:50:37.823Z,100.00
2019-01-19T23:53:06.477Z,100.00
2019-01-19T23:55:35.019Z,100.00
2019-01-19T23:58:03.504Z,100.00
